Time;durP1;ratioP1;P1;durP2;ratioP2;P2;SDS_P1;SDS_P2;PMS_P1;PMS_P2;Temp;Humidity;BMP_temperature;BMP_pressure;BME280_temperature;BME280_humidity;BME280_pressure;Samples;Min_cycle;Max_cycle;Signal;HPM_P1;HPM_P2
2023/10/11 00:00:35;;;;;;;3.70;2.33;;;20.30;71.00;;;;;;5026401;28;20112;-74
2023/10/11 00:03:16;;;;;;;3.95;2.63;;;20.30;71.00;;;;;;5025879;28;20134;-75
2023/10/11 00:05:43;;;;;;;4.60;2.25;;;20.30;71.10;;;;;;5025594;28;20052;-74
2023/10/11 00:08:16;;;;;;;3.90;2.53;;;20.30;71.10;;;;;;5038818;28;20116;-74
2023/10/11 00:10:53;;;;;;;3.40;2.20;;;20.30;71.10;;;;;;5029144;28;20029;-74
2023/10/11 00:13:21;;;;;;;3.83;2.40;;;20.20;71.10;;;;;;5028601;28;20532;-74
2023/10/11 00:15:49;;;;;;;3.97;2.65;;;20.20;71.10;;;;;;5029864;28;20037;-74
2023/10/11 00:18:24;;;;;;;4.10;2.83;;;20.20;71.10;;;;;;5026337;28;20167;-75
2023/10/11 00:20:50;;;;;;;4.57;2.80;;;20.20;71.10;;;;;;5027578;28;20078;-74
2023/10/11 00:23:27;;;;;;;3.30;2.30;;;20.20;71.10;;;;;;5009032;28;20033;-75
2023/10/11 00:25:54;;;;;;;3.90;2.70;;;20.20;71.10;;;;;;5040043;28;20030;-74
2023/10/11 00:28:26;;;;;;;3.30;2.33;;;20.10;71.10;;;;;;5024155;28;20022;-75
2023/10/11 00:30:53;;;;;;;3.95;2.47;;;20.10;71.10;;;;;;5024953;28;20029;-74
2023/10/11 00:33:19;;;;;;;3.75;2.28;;;20.10;71.10;;;;;;5025379;28;20668;-76
2023/10/11 00:35:49;;;;;;;3.55;2.45;;;20.10;71.10;;;;;;5025450;28;20029;-75
2023/10/11 00:38:19;;;;;;;3.33;2.40;;;20.10;71.10;;;;;;5027637;28;20083;-75
2023/10/11 00:41:07;;;;;;;4.18;2.70;;;20.00;71.10;;;;;;5011378;28;20912;-75
2023/10/11 00:43:34;;;;;;;4.25;2.40;;;20.10;71.10;;;;;;5029137;28;20029;-75
2023/10/11 00:46:02;;;;;;;3.70;2.42;;;20.00;71.10;;;;;;5031122;28;20068;-74
2023/10/11 00:48:30;;;;;;;3.78;2.60;;;20.00;71.10;;;;;;5016843;28;20025;-75
2023/10/11 00:50:56;;;;;;;3.92;2.45;;;20.00;71.10;;;;;;5017610;28;20033;-74
2023/10/11 00:53:26;;;;;;;3.40;2.30;;;20.00;71.10;;;;;;5037184;28;20041;-75
2023/10/11 00:55:57;;;;;;;3.75;2.40;;;20.00;71.20;;;;;;5041470;28;20072;-75
2023/10/11 00:58:22;;;;;;;3.72;2.33;;;20.00;71.20;;;;;;5038936;28;20021;-74
2023/10/11 01:00:49;;;;;;;3.72;2.38;;;19.90;71.10;;;;;;5003263;28;20496;-74
2023/10/11 01:03:17;;;;;;;3.75;2.50;;;19.90;71.10;;;;;;5034765;28;20037;-74
2023/10/11 01:05:45;;;;;;;3.65;2.13;;;19.90;71.10;;;;;;5048600;28;20459;-75
2023/10/11 01:08:11;;;;;;;3.08;2.33;;;19.90;71.10;;;;;;5015442;28;20552;-75
2023/10/11 01:10:38;;;;;;;4.13;2.70;;;19.90;71.10;;;;;;5031104;28;20033;-74
2023/10/11 01:13:05;;;;;;;4.18;2.60;;;19.90;71.10;;;;;;5030012;28;20026;-74
2023/10/11 01:15:30;;;;;;;3.85;2.50;;;19.90;71.10;;;;;;5032025;28;20038;-76
2023/10/11 01:17:56;;;;;;;3.72;2.47;;;19.90;71.10;;;;;;5029555;28;20034;-74
2023/10/11 01:20:36;;;;;;;4.93;2.50;;;19.80;71.10;;;;;;5030315;28;20283;-75
2023/10/11 01:23:04;;;;;;;3.35;2.30;;;19.90;71.20;;;;;;5028305;28;20113;-74
2023/10/11 01:25:29;;;;;;;5.38;2.60;;;19.80;71.10;;;;;;5025673;28;20064;-75
2023/10/11 01:27:55;;;;;;;3.85;2.58;;;19.80;71.10;;;;;;5028071;28;20470;-74
2023/10/11 01:30:21;;;;;;;5.10;2.60;;;19.80;71.10;;;;;;5029303;28;20033;-74
2023/10/11 01:32:48;;;;;;;4.03;2.40;;;19.80;71.10;;;;;;5032018;28;20367;-74
2023/10/11 01:35:20;;;;;;;3.47;2.47;;;19.80;71.10;;;;;;5029940;28;20401;-75
2023/10/11 01:37:48;;;;;;;3.90;2.47;;;19.80;71.10;;;;;;5029948;28;20034;-75
2023/10/11 01:40:29;;;;;;;3.50;2.33;;;19.80;71.10;;;;;;5030187;28;20033;-76
2023/10/11 01:42:57;;;;;;;3.80;2.60;;;19.80;71.10;;;;;;5028019;28;20033;-76
2023/10/11 01:45:23;;;;;;;4.65;2.58;;;19.80;71.00;;;;;;5028879;28;20044;-75
2023/10/11 01:47:56;;;;;;;4.28;2.42;;;19.80;71.10;;;;;;5026097;28;20072;-75
2023/10/11 01:50:22;;;;;;;4.55;2.80;;;19.80;71.10;;;;;;5026239;28;20025;-75
2023/10/11 01:52:48;;;;;;;4.60;2.50;;;19.70;71.00;;;;;;5022957;28;20037;-74
2023/10/11 01:55:14;;;;;;;4.05;2.67;;;19.70;71.10;;;;;;5028100;28;20053;-74
2023/10/11 01:57:48;;;;;;;4.57;2.45;;;19.70;71.10;;;;;;5028056;28;20026;-74
2023/10/11 02:00:28;;;;;;;3.85;2.53;;;19.70;71.10;;;;;;5027546;28;20107;-75
2023/10/11 02:02:56;;;;;;;3.97;2.63;;;19.70;71.10;;;;;;5026634;28;20033;-74
2023/10/11 02:05:23;;;;;;;3.35;2.33;;;19.70;71.10;;;;;;5010703;28;20044;-74
2023/10/11 02:07:50;;;;;;;4.20;2.80;;;19.60;71.00;;;;;;5024697;28;20615;-75
2023/10/11 02:10:26;;;;;;;3.53;2.30;;;19.70;71.10;;;;;;5020513;28;20037;-74
2023/10/11 02:12:55;;;;;;;4.20;2.58;;;19.70;71.10;;;;;;5027178;28;20065;-76
2023/10/11 02:15:27;;;;;;;4.75;2.83;;;19.70;71.10;;;;;;5025716;28;20033;-74
2023/10/11 02:17:54;;;;;;;3.67;2.65;;;19.60;71.00;;;;;;5027995;28;20058;-76
2023/10/11 02:20:23;;;;;;;3.80;2.50;;;19.60;71.00;;;;;;5025440;28;20108;-74
2023/10/11 02:22:52;;;;;;;3.17;2.45;;;19.60;71.10;;;;;;5026657;28;20550;-75
2023/10/11 02:25:19;;;;;;;3.38;2.70;;;19.60;71.10;;;;;;5027998;28;20063;-75
2023/10/11 02:27:50;;;;;;;4.43;2.70;;;19.60;71.10;;;;;;5024623;28;20049;-75
2023/10/11 02:30:21;;;;;;;3.88;2.30;;;19.60;71.10;;;;;;4994160;28;20029;-75
2023/10/11 02:32:50;;;;;;;3.90;2.53;;;19.60;71.10;;;;;;5039068;28;20048;-74
2023/10/11 02:35:18;;;;;;;4.93;2.95;;;19.60;71.10;;;;;;5027768;28;20028;-74
2023/10/11 02:37:47;;;;;;;3.60;2.45;;;19.60;71.10;;;;;;5024476;28;20045;-75
2023/10/11 02:40:22;;;;;;;3.83;2.60;;;19.50;71.10;;;;;;5024623;28;20072;-74
2023/10/11 02:42:50;;;;;;;3.75;2.78;;;19.50;71.20;;;;;;5011369;28;20033;-75
2023/10/11 02:45:21;;;;;;;4.07;2.40;;;19.50;71.20;;;;;;5028903;28;20033;-75
2023/10/11 02:47:58;;;;;;;3.55;2.33;;;19.50;71.20;;;;;;5006175;28;20123;-75
2023/10/11 02:50:25;;;;;;;5.18;2.60;;;19.40;71.20;;;;;;5038946;28;20405;-75
2023/10/11 02:52:59;;;;;;;3.22;2.47;;;19.50;71.30;;;;;;5038826;28;20029;-74
2023/10/11 02:55:27;;;;;;;4.57;2.80;;;19.40;71.90;;;;;;5030335;28;20063;-75
2023/10/11 02:58:08;;;;;;;5.28;3.20;;;19.40;71.30;;;;;;5038301;28;21436;-75
2023/10/11 03:00:35;;;;;;;3.50;2.45;;;19.40;71.30;;;;;;5032136;28;20029;-75
2023/10/11 03:03:01;;;;;;;4.03;2.55;;;19.40;71.30;;;;;;5038846;28;20115;-74
2023/10/11 03:05:28;;;;;;;3.75;2.60;;;19.40;71.30;;;;;;5015769;28;20562;-74
2023/10/11 03:08:13;;;;;;;4.60;3.00;;;19.40;71.30;;;;;;5039414;28;20087;-74
2023/10/11 03:10:53;;;;;;;4.43;2.95;;;19.30;71.30;;;;;;5011111;28;21174;-75
2023/10/11 03:13:24;;;;;;;3.67;2.80;;;19.40;71.40;;;;;;5026632;28;20025;-74
2023/10/11 03:15:56;;;;;;;4.10;2.47;;;19.30;71.30;;;;;;5024760;28;20485;-75
2023/10/11 03:18:33;;;;;;;3.70;2.63;;;19.30;71.30;;;;;;5029067;28;20029;-74
2023/10/11 03:21:09;;;;;;;4.03;2.58;;;19.30;71.30;;;;;;5025913;28;20458;-74
2023/10/11 03:23:45;;;;;;;4.20;2.70;;;19.30;71.30;;;;;;5027829;28;20041;-74
2023/10/11 03:26:16;;;;;;;4.10;2.72;;;19.30;71.30;;;;;;5023795;28;20044;-75
2023/10/11 03:28:56;;;;;;;5.00;3.05;;;19.20;71.30;;;;;;5027198;28;20033;-75
2023/10/11 03:31:29;;;;;;;3.85;2.45;;;19.20;71.30;;;;;;5027677;28;20053;-75
2023/10/11 03:33:59;;;;;;;4.75;3.00;;;19.20;71.30;;;;;;5029936;28;20059;-76
2023/10/11 03:36:35;;;;;;;4.22;2.55;;;19.20;71.30;;;;;;5025936;28;20053;-75
2023/10/11 03:39:10;;;;;;;3.97;2.50;;;19.20;71.40;;;;;;5024838;28;20548;-74
2023/10/11 03:41:44;;;;;;;3.90;2.72;;;19.20;71.40;;;;;;5011361;28;20398;-77
2023/10/11 03:44:10;;;;;;;3.50;2.45;;;19.20;71.40;;;;;;4995318;28;20049;-74
2023/10/11 03:46:36;;;;;;;3.72;2.65;;;19.20;71.40;;;;;;5026888;28;20466;-75
2023/10/11 03:51:43;;;;;;;4.35;2.80;;;19.10;71.40;;;;;;5024076;28;20911;-74
2023/10/11 03:54:13;;;;;;;4.85;2.55;;;19.10;71.30;;;;;;4994167;28;20430;-75
2023/10/11 03:56:45;;;;;;;3.67;2.78;;;19.10;71.40;;;;;;5008607;28;20410;-74
2023/10/11 03:59:13;;;;;;;4.97;3.13;;;19.10;71.40;;;;;;5027324;28;20040;-75
2023/10/11 04:01:38;;;;;;;5.03;2.80;;;19.10;71.40;;;;;;5027406;28;20029;-75
2023/10/11 04:04:05;;;;;;;3.65;2.60;;;19.10;71.40;;;;;;5027237;28;20053;-75
2023/10/11 04:06:34;;;;;;;5.13;2.90;;;19.10;71.40;;;;;;5010393;28;20040;-75
2023/10/11 04:09:03;;;;;;;4.53;3.13;;;19.00;71.30;;;;;;5023363;28;20140;-74
2023/10/11 04:11:54;;;;;;;3.80;2.75;;;19.10;71.30;;;;;;5027050;28;20453;-75
2023/10/11 04:14:24;;;;;;;4.13;2.90;;;19.00;71.30;;;;;;5014561;28;20115;-74
2023/10/11 04:16:56;;;;;;;4.07;2.90;;;19.00;71.30;;;;;;5029824;28;20025;-75
2023/10/11 04:19:22;;;;;;;4.20;2.78;;;19.00;71.30;;;;;;5030111;28;20088;-75
2023/10/11 04:24:19;;;;;;;4.40;2.95;;;18.90;71.30;;;;;;5029200;28;20041;-74
2023/10/11 04:26:53;;;;;;;4.28;3.15;;;18.90;71.30;;;;;;4996943;28;20033;-75
2023/10/11 04:29:23;;;;;;;4.07;3.00;;;18.90;71.30;;;;;;5031245;28;20646;-75
2023/10/11 04:34:33;;;;;;;4.13;2.90;;;18.90;71.30;;;;;;5030005;28;20038;-74
2023/10/11 04:37:04;;;;;;;5.82;3.30;;;18.90;71.40;;;;;;5012975;28;20466;-74
2023/10/11 04:39:49;;;;;;;4.32;3.03;;;18.90;71.40;;;;;;5015051;28;20038;-76
2023/10/11 04:42:17;;;;;;;4.22;2.75;;;18.90;71.40;;;;;;5029676;28;20037;-76
2023/10/11 04:44:47;;;;;;;4.90;2.80;;;18.90;71.40;;;;;;5028311;28;20471;-75
2023/10/11 04:47:12;;;;;;;3.67;2.80;;;18.80;71.40;;;;;;5029251;28;20037;-75
2023/10/11 04:49:43;;;;;;;6.22;3.30;;;18.80;71.40;;;;;;5025670;28;20451;-75
2023/10/11 04:52:22;;;;;;;5.30;3.25;;;18.80;71.40;;;;;;5026472;28;20030;-75
2023/10/11 04:54:55;;;;;;;5.28;3.38;;;18.80;71.50;;;;;;5027165;28;20046;-76
2023/10/11 04:57:49;;;;;;;5.07;3.58;;;18.80;71.50;;;;;;5012622;28;20624;-75
2023/10/11 05:00:17;;;;;;;5.25;3.22;;;18.70;71.50;;;;;;5033907;28;20041;-75
2023/10/11 05:02:44;;;;;;;4.10;2.75;;;18.80;71.50;;;;;;5014056;28;20401;-75
2023/10/11 05:05:18;;;;;;;5.22;3.13;;;18.80;71.60;;;;;;5031618;28;20040;-74
2023/10/11 05:07:46;;;;;;;5.25;3.10;;;18.80;71.60;;;;;;5035450;28;20047;-74
2023/10/11 05:12:58;;;;;;;4.43;2.92;;;18.70;71.60;;;;;;5024153;28;20029;-74
2023/10/11 05:15:34;;;;;;;4.53;3.20;;;18.70;71.60;;;;;;5029184;28;20096;-74
2023/10/11 05:18:00;;;;;;;6.55;3.13;;;18.70;71.60;;;;;;5042882;28;20045;-75
2023/10/11 05:20:45;;;;;;;4.32;3.00;;;18.70;71.60;;;;;;4994985;28;20505;-76
2023/10/11 05:23:14;;;;;;;4.82;3.05;;;18.60;71.60;;;;;;5027651;28;20091;-75
2023/10/11 05:25:58;;;;;;;4.68;2.97;;;18.70;71.60;;;;;;5027477;28;20090;-74
2023/10/11 05:28:27;;;;;;;4.13;3.13;;;18.60;71.60;;;;;;5026926;28;20021;-76
2023/10/11 05:36:48;;;;;;;4.20;2.88;;;18.60;71.60;;;;;;5015413;28;20076;-75
2023/10/11 05:52:55;;;;;;;4.68;2.67;;;18.50;71.70;;;;;;5037064;28;20036;-74
2023/10/11 05:55:22;;;;;;;4.53;3.38;;;18.50;71.70;;;;;;5031691;28;20052;-75
2023/10/11 05:57:49;;;;;;;5.15;3.25;;;18.50;71.70;;;;;;5042260;28;20040;-75
2023/10/11 06:00:38;;;;;;;4.63;3.22;;;18.50;71.70;;;;;;5044348;28;20029;-75
2023/10/11 06:03:05;;;;;;;4.38;3.10;;;18.50;71.80;;;;;;5039606;28;20021;-74
2023/10/11 06:05:39;;;;;;;4.90;3.05;;;18.50;71.80;;;;;;5042526;28;20052;-75
2023/10/11 06:08:06;;;;;;;4.45;3.13;;;18.50;71.80;;;;;;5034056;28;21363;-75
2023/10/11 06:10:41;;;;;;;4.65;3.38;;;18.50;71.80;;;;;;5040057;28;20112;-75
2023/10/11 06:13:15;;;;;;;4.72;3.28;;;18.50;71.80;;;;;;5035055;28;20562;-75
2023/10/11 06:16:00;;;;;;;4.47;2.97;;;18.50;71.90;;;;;;5039955;28;20036;-75
2023/10/11 06:18:39;;;;;;;4.07;2.80;;;18.50;71.80;;;;;;5035822;28;20022;-75
2023/10/11 06:21:06;;;;;;;4.40;2.92;;;18.40;71.80;;;;;;5044414;28;20025;-74
2023/10/11 06:23:32;;;;;;;4.97;3.33;;;18.50;71.90;;;;;;5040376;28;20045;-75
2023/10/11 06:25:59;;;;;;;5.22;3.22;;;18.40;71.90;;;;;;5036808;28;20045;-75
2023/10/11 06:28:31;;;;;;;3.90;2.97;;;18.40;71.90;;;;;;5038954;28;20135;-76
2023/10/11 06:31:00;;;;;;;4.88;2.97;;;18.40;72.00;;;;;;5032905;28;20030;-77
2023/10/11 06:33:27;;;;;;;5.18;3.30;;;18.40;72.00;;;;;;5040681;28;20478;-78
2023/10/11 06:35:53;;;;;;;5.30;3.30;;;18.40;72.00;;;;;;5027305;28;20088;-77
2023/10/11 06:38:21;;;;;;;5.65;3.55;;;18.50;72.00;;;;;;5040568;28;20072;-75
2023/10/11 06:40:54;;;;;;;6.00;3.55;;;18.40;72.00;;;;;;5029448;28;20029;-74
2023/10/11 06:43:20;;;;;;;4.32;2.92;;;18.40;72.00;;;;;;5032292;28;20044;-75
2023/10/11 06:45:46;;;;;;;4.57;3.03;;;18.40;72.10;;;;;;5035037;28;20339;-74
2023/10/11 06:48:16;;;;;;;4.63;3.20;;;18.40;72.10;;;;;;5027176;28;20233;-75
2023/10/11 06:50:42;;;;;;;6.78;3.42;;;18.50;72.10;;;;;;5033722;28;20390;-75
2023/10/11 06:53:09;;;;;;;5.20;3.58;;;18.50;72.10;;;;;;5023838;28;20493;-75
2023/10/11 06:55:36;;;;;;;5.60;3.40;;;18.40;72.10;;;;;;5030348;28;20034;-75
2023/10/11 06:58:15;;;;;;;4.93;3.33;;;18.50;72.10;;;;;;5038933;28;20045;-74
2023/10/11 07:00:45;;;;;;;6.13;3.25;;;18.40;72.10;;;;;;5025901;28;20037;-74
2023/10/11 07:03:26;;;;;;;5.47;3.45;;;18.50;72.10;;;;;;5039452;28;20606;-75
2023/10/11 07:06:00;;;;;;;5.65;3.38;;;18.50;72.10;;;;;;5033081;28;20033;-75
2023/10/11 07:08:32;;;;;;;5.20;3.42;;;18.50;72.20;;;;;;5040830;28;20036;-75
2023/10/11 07:13:49;;;;;;;5.15;3.70;;;18.50;72.20;;;;;;5033676;28;20032;-75
2023/10/11 07:16:19;;;;;;;4.38;3.20;;;18.50;72.20;;;;;;5003605;28;20467;-75
2023/10/11 07:18:54;;;;;;;4.28;3.13;;;18.50;72.20;;;;;;5033225;28;20042;-75
2023/10/11 07:21:41;;;;;;;4.68;3.08;;;18.50;72.20;;;;;;5045356;28;20029;-75
2023/10/11 07:24:19;;;;;;;6.47;3.92;;;18.50;72.20;;;;;;5027240;28;20034;-81
2023/10/11 07:29:13;;;;;;;5.00;3.28;;;18.60;72.20;;;;;;5046214;28;20104;-76
2023/10/11 07:31:48;;;;;;;6.03;3.60;;;18.60;72.20;;;;;;5037528;28;20368;-76
2023/10/11 07:34:17;;;;;;;5.82;3.55;;;18.60;72.20;;;;;;5031732;28;20029;-78
2023/10/11 07:36:44;;;;;;;4.93;3.70;;;18.60;72.40;;;;;;4999478;28;20060;-85
2023/10/11 07:41:49;;;;;;;5.18;3.85;;;18.60;72.40;;;;;;5036783;28;20026;-77
2023/10/11 07:44:19;;;;;;;5.47;3.78;;;18.60;72.30;;;;;;5029913;28;20124;-77
2023/10/11 07:46:54;;;;;;;5.57;3.90;;;18.60;72.30;;;;;;5021765;28;20042;-76
2023/10/11 07:49:23;;;;;;;6.10;4.18;;;18.60;72.30;;;;;;5026385;28;20047;-77
2023/10/11 07:51:58;;;;;;;5.57;3.72;;;18.60;72.30;;;;;;5019356;28;20120;-76
2023/10/11 07:54:26;;;;;;;5.68;3.92;;;18.70;72.40;;;;;;5038432;28;20429;-76
2023/10/11 07:56:57;;;;;;;5.32;3.83;;;18.70;72.30;;;;;;5042959;28;20061;-75
2023/10/11 07:59:26;;;;;;;6.55;3.72;;;18.70;72.30;;;;;;5043277;28;20548;-76
2023/10/11 08:02:07;;;;;;;5.82;3.53;;;18.70;72.40;;;;;;5029975;28;20033;-76
2023/10/11 08:04:35;;;;;;;5.32;4.20;;;18.70;72.40;;;;;;5028402;28;20042;-76
2023/10/11 08:07:08;;;;;;;5.72;3.92;;;18.70;72.30;;;;;;5045793;28;20029;-78
2023/10/11 08:09:45;;;;;;;5.68;3.85;;;18.80;72.40;;;;;;5043983;28;20458;-76
2023/10/11 08:12:15;;;;;;;6.05;3.55;;;18.70;72.30;;;;;;5041724;28;20037;-76
2023/10/11 08:14:45;;;;;;;5.75;3.97;;;18.70;72.30;;;;;;5037498;28;20061;-77
2023/10/11 08:17:19;;;;;;;6.40;4.10;;;18.80;72.40;;;;;;5036428;28;20083;-76
2023/10/11 08:19:46;;;;;;;5.70;3.67;;;18.80;72.40;;;;;;5038968;28;20106;-76
2023/10/11 08:22:16;;;;;;;5.47;3.83;;;18.80;72.40;;;;;;5041207;28;20164;-77
2023/10/11 08:24:49;;;;;;;5.60;3.75;;;18.80;72.30;;;;;;5041907;28;20401;-76
2023/10/11 08:27:27;;;;;;;5.47;4.03;;;18.80;72.40;;;;;;5035151;28;20036;-77
2023/10/11 08:30:07;;;;;;;5.22;3.83;;;18.80;72.30;;;;;;5042973;28;20048;-78
2023/10/11 08:32:37;;;;;;;5.78;3.85;;;18.80;72.40;;;;;;5033703;28;20033;-76
2023/10/11 08:35:09;;;;;;;5.78;3.85;;;18.80;72.40;;;;;;5020933;28;20034;-76
2023/10/11 08:37:35;;;;;;;6.75;3.97;;;18.90;72.40;;;;;;5023808;28;20030;-77
2023/10/11 08:40:10;;;;;;;5.80;4.13;;;18.80;72.40;;;;;;5038781;28;20052;-77
2023/10/11 08:42:37;;;;;;;5.32;3.80;;;18.90;72.40;;;;;;5024078;28;20035;-77
2023/10/11 08:45:07;;;;;;;5.60;4.10;;;18.90;72.40;;;;;;5043893;28;20029;-77
2023/10/11 08:47:33;;;;;;;5.50;4.20;;;18.90;73.00;;;;;;5023262;28;20036;-76
2023/10/11 08:49:59;;;;;;;5.75;4.35;;;18.90;72.30;;;;;;5038533;28;20033;-75
2023/10/11 08:52:28;;;;;;;5.47;3.95;;;18.90;72.30;;;;;;5039358;28;20907;-76
2023/10/11 08:54:54;;;;;;;6.28;4.65;;;19.00;72.40;;;;;;5029077;28;20062;-76
2023/10/11 08:57:25;;;;;;;6.55;4.15;;;19.00;72.30;;;;;;5030253;28;20060;-76
2023/10/11 08:59:56;;;;;;;6.55;4.53;;;19.00;72.40;;;;;;5011761;28;20049;-76
2023/10/11 09:02:33;;;;;;;6.10;4.28;;;19.00;72.40;;;;;;5022855;28;20037;-77
2023/10/11 09:05:47;;;;;;;6.30;4.13;;;19.00;72.30;;;;;;5040539;28;20029;-77
2023/10/11 09:07:51;;;;;;;6.57;4.95;;;19.10;72.40;;;;;;5031159;28;20040;-77
2023/10/11 09:10:23;;;;;;;5.90;4.30;;;19.10;72.30;;;;;;5041074;28;20114;-77
2023/10/11 09:12:49;;;;;;;6.47;4.57;;;19.10;72.30;;;;;;5018822;28;20075;-77
2023/10/11 09:15:16;;;;;;;5.60;4.13;;;19.10;72.20;;;;;;5036017;28;20037;-78
2023/10/11 09:17:41;;;;;;;6.32;4.38;;;19.20;72.20;;;;;;5024037;28;20042;-80
2023/10/11 09:20:23;;;;;;;6.38;4.40;;;19.20;72.20;;;;;;5038984;28;20029;-78
2023/10/11 09:22:55;;;;;;;5.40;4.70;;;19.20;72.30;;;;;;5043640;28;20093;-77
2023/10/11 09:25:22;;;;;;;6.13;4.57;;;19.20;72.20;;;;;;5045773;28;20068;-76
2023/10/11 09:27:48;;;;;;;6.22;4.90;;;19.20;72.20;;;;;;5042147;28;20030;-77
2023/10/11 09:30:22;;;;;;;6.72;5.03;;;19.20;72.20;;;;;;5022958;28;20109;-77
2023/10/11 09:32:49;;;;;;;6.43;4.97;;;19.30;72.30;;;;;;5039943;28;20534;-79
2023/10/11 09:35:26;;;;;;;6.50;4.93;;;19.30;72.20;;;;;;5044067;28;20048;-77
2023/10/11 09:37:57;;;;;;;6.68;4.97;;;19.30;72.20;;;;;;5025827;28;20398;-77
2023/10/11 09:40:31;;;;;;;6.82;4.97;;;19.30;72.20;;;;;;5035120;28;20466;-77
2023/10/11 09:43:00;;;;;;;8.57;5.70;;;19.30;72.20;;;;;;5042785;28;20026;-80
2023/10/11 09:45:44;;;;;;;6.95;5.22;;;19.40;72.20;;;;;;5043487;28;20434;-78
2023/10/11 09:48:19;;;;;;;6.35;4.82;;;19.40;72.30;;;;;;5031150;28;20029;-80
2023/10/11 09:50:44;;;;;;;7.57;5.22;;;19.40;72.20;;;;;;5027334;28;20033;-80
2023/10/11 09:53:14;;;;;;;7.13;5.55;;;19.40;72.20;;;;;;5032168;28;20036;-80
2023/10/11 09:55:52;;;;;;;7.32;5.72;;;19.40;72.30;;;;;;5040059;28;20048;-77
2023/10/11 09:59:13;;;;;;;7.15;5.32;;;19.40;72.30;;;;;;5039303;28;20123;-77
2023/10/11 10:01:51;;;;;;;7.00;5.18;;;19.40;72.30;;;;;;5035475;28;20037;-77
2023/10/11 10:04:20;;;;;;;7.15;5.50;;;19.40;72.10;;;;;;5040067;28;20044;-77
2023/10/11 10:07:14;;;;;;;8.88;5.47;;;19.50;72.20;;;;;;5040126;28;20075;-78
2023/10/11 10:10:00;;;;;;;7.53;5.53;;;19.50;72.30;;;;;;5024550;28;20044;-77
2023/10/11 10:12:33;;;;;;;7.03;5.82;;;19.40;72.30;;;;;;5043521;28;20021;-78
2023/10/11 10:15:07;;;;;;;7.55;5.43;;;19.50;72.30;;;;;;5034520;28;20095;-77
2023/10/11 10:17:42;;;;;;;7.40;5.13;;;19.50;72.30;;;;;;5041148;28;20026;-78
2023/10/11 10:20:33;;;;;;;7.55;5.53;;;19.50;72.20;;;;;;5039990;28;20025;-78
2023/10/11 10:23:14;;;;;;;8.25;5.82;;;19.50;72.30;;;;;;5042811;28;20048;-77
2023/10/11 10:25:45;;;;;;;7.72;5.88;;;19.50;72.20;;;;;;5030529;28;20030;-77
2023/10/11 10:28:36;;;;;;;7.80;5.95;;;19.60;72.20;;;;;;5042379;28;20116;-78
2023/10/11 10:31:18;;;;;;;11.00;6.07;;;19.60;72.30;;;;;;5039700;28;20505;-78
2023/10/11 10:33:49;;;;;;;7.50;5.70;;;19.60;72.20;;;;;;5006108;28;20028;-78
2023/10/11 10:36:21;;;;;;;7.47;5.57;;;19.60;72.20;;;;;;5031725;28;20033;-79
2023/10/11 10:39:24;;;;;;;7.10;5.68;;;19.60;72.20;;;;;;5022305;28;20036;-79
2023/10/11 10:42:13;;;;;;;6.60;5.47;;;19.60;72.90;;;;;;5045293;28;20025;-80
2023/10/11 10:44:51;;;;;;;8.07;5.50;;;19.70;72.20;;;;;;5033476;28;20025;-79
2023/10/11 10:47:31;;;;;;;7.22;5.43;;;19.70;72.20;;;;;;5041546;28;20090;-79
2023/10/11 10:50:05;;;;;;;7.95;5.95;;;19.70;72.20;;;;;;5019040;28;20539;-80
2023/10/11 10:52:31;;;;;;;7.88;6.15;;;19.70;72.10;;;;;;5035956;28;20309;-79
2023/10/11 10:55:01;;;;;;;8.25;6.07;;;19.70;72.10;;;;;;5032816;28;20042;-80
2023/10/11 10:57:31;;;;;;;7.63;6.18;;;19.80;72.20;;;;;;5038335;28;20045;-78
2023/10/11 11:00:25;;;;;;;8.30;6.45;;;19.80;72.20;;;;;;5036250;28;20046;-77
2023/10/11 11:02:52;;;;;;;7.95;5.80;;;19.80;72.20;;;;;;5011131;28;20275;-77
2023/10/11 11:05:24;;;;;;;7.07;5.68;;;19.80;72.10;;;;;;5021414;28;20108;-78
2023/10/11 11:07:50;;;;;;;7.53;5.95;;;19.80;72.10;;;;;;5033581;28;20466;-78
2023/10/11 11:10:21;;;;;;;8.73;6.35;;;19.80;72.10;;;;;;5024941;28;20017;-78
2023/10/11 11:12:50;;;;;;;8.73;6.45;;;19.80;72.20;;;;;;5040706;28;20033;-78
2023/10/11 11:15:22;;;;;;;8.63;6.18;;;19.80;72.20;;;;;;5018368;28;20030;-78
2023/10/11 11:17:50;;;;;;;8.50;5.97;;;19.80;72.10;;;;;;5046478;28;20087;-78
2023/10/11 11:20:27;;;;;;;7.93;6.32;;;19.90;72.20;;;;;;5022377;28;20036;-77
2023/10/11 11:22:54;;;;;;;7.35;6.10;;;19.90;72.20;;;;;;5024437;28;20466;-77
2023/10/11 11:28:04;;;;;;;8.35;6.43;;;19.90;72.20;;;;;;5040249;28;20025;-78
2023/10/11 11:30:34;;;;;;;7.18;5.80;;;19.90;72.20;;;;;;5005432;28;20079;-78
2023/10/11 11:33:08;;;;;;;8.57;6.25;;;19.90;72.10;;;;;;5030785;28;20064;-77
2023/10/11 11:35:52;;;;;;;8.57;6.88;;;19.90;72.10;;;;;;5018828;28;20040;-77
2023/10/11 11:38:21;;;;;;;7.75;5.82;;;20.00;72.20;;;;;;5025550;28;20029;-77
2023/10/11 11:41:00;;;;;;;8.05;5.85;;;20.00;72.10;;;;;;5033251;28;20030;-77
2023/10/11 11:43:38;;;;;;;8.50;6.05;;;20.00;72.10;;;;;;5019560;28;20033;-79
2023/10/11 11:46:04;;;;;;;8.63;6.50;;;20.00;72.10;;;;;;5032334;28;20104;-78
2023/10/11 11:48:40;;;;;;;7.47;5.70;;;20.10;72.10;;;;;;5041313;28;20037;-78
2023/10/11 11:51:13;;;;;;;7.75;5.93;;;20.10;72.10;;;;;;5041611;28;20063;-78
2023/10/11 11:53:43;;;;;;;7.32;5.35;;;20.10;72.10;;;;;;5034949;28;20032;-77
2023/10/11 11:56:11;;;;;;;6.93;5.75;;;20.20;72.10;;;;;;5012658;28;20054;-77
2023/10/11 11:58:46;;;;;;;7.88;6.35;;;20.10;72.00;;;;;;5009884;28;20049;-78
2023/10/11 12:01:16;;;;;;;8.20;5.70;;;20.20;72.00;;;;;;5026051;28;20040;-77
2023/10/11 12:03:42;;;;;;;7.72;5.65;;;20.20;72.00;;;;;;5026783;28;20589;-78
2023/10/11 12:06:21;;;;;;;6.65;5.32;;;20.20;71.90;;;;;;5025963;28;20029;-77
2023/10/11 12:08:57;;;;;;;7.68;5.90;;;20.20;71.90;;;;;;5027072;28;20044;-78
2023/10/11 12:11:28;;;;;;;7.13;5.20;;;20.30;71.90;;;;;;5026141;28;20081;-78
2023/10/11 12:13:56;;;;;;;6.68;5.22;;;20.30;71.90;;;;;;5025859;28;20065;-77
2023/10/11 12:16:23;;;;;;;6.78;5.10;;;20.30;71.90;;;;;;5025604;28;20033;-78
2023/10/11 12:18:49;;;;;;;6.75;4.90;;;20.40;71.90;;;;;;5033258;28;20061;-77
2023/10/11 12:21:16;;;;;;;6.82;4.85;;;20.40;71.80;;;;;;5037290;28;20064;-77
2023/10/11 12:23:48;;;;;;;7.57;5.95;;;20.40;71.80;;;;;;5038147;28;20099;-77
2023/10/11 12:26:18;;;;;;;7.22;5.25;;;20.50;71.90;;;;;;5034617;28;20036;-77
2023/10/11 12:28:44;;;;;;;6.55;5.25;;;20.50;71.80;;;;;;5023074;28;20043;-78
2023/10/11 12:31:10;;;;;;;6.70;4.95;;;20.50;71.80;;;;;;5049707;28;20029;-78
2023/10/11 12:33:36;;;;;;;7.57;5.05;;;20.50;71.80;;;;;;5042649;28;20025;-78
2023/10/11 12:36:06;;;;;;;6.13;4.45;;;20.50;71.70;;;;;;5038310;28;20596;-78
2023/10/11 12:38:39;;;;;;;6.55;4.70;;;20.50;71.70;;;;;;5017601;28;20037;-77
2023/10/11 12:41:07;;;;;;;6.23;4.50;;;20.60;71.80;;;;;;5036594;28;20033;-78
2023/10/11 12:43:33;;;;;;;6.47;5.03;;;20.60;71.70;;;;;;5044928;28;20334;-78
2023/10/11 12:46:00;;;;;;;6.72;4.70;;;20.60;71.70;;;;;;5019728;28;20080;-77
2023/10/11 12:48:26;;;;;;;6.55;4.30;;;20.70;71.70;;;;;;5024496;28;20033;-80
2023/10/11 12:50:52;;;;;;;6.13;4.47;;;20.70;71.80;;;;;;5039380;28;20046;-77
2023/10/11 12:53:18;;;;;;;5.82;4.57;;;20.70;71.70;;;;;;5031896;28;20402;-78
2023/10/11 12:55:48;;;;;;;6.53;4.53;;;20.70;71.70;;;;;;5032053;28;20033;-77
2023/10/11 12:58:15;;;;;;;5.90;4.25;;;20.70;71.70;;;;;;5013998;28;20025;-81
2023/10/11 13:00:51;;;;;;;6.72;4.68;;;20.70;71.70;;;;;;5020634;28;20052;-80
2023/10/11 13:03:18;;;;;;;6.78;4.43;;;20.70;71.70;;;;;;5040899;28;20030;-79
2023/10/11 13:05:47;;;;;;;5.97;4.35;;;20.80;71.70;;;;;;5040660;28;20030;-80
2023/10/11 13:08:14;;;;;;;6.25;4.57;;;20.80;71.70;;;;;;5023028;28;20040;-79
2023/10/11 13:10:45;;;;;;;6.72;4.85;;;20.80;71.70;;;;;;5018925;28;20377;-79
2023/10/11 13:13:14;;;;;;;6.32;4.88;;;20.80;71.70;;;;;;5044124;28;20025;-79
2023/10/11 13:15:55;;;;;;;6.60;4.97;;;20.80;71.70;;;;;;5027226;28;20033;-79
2023/10/11 13:18:21;;;;;;;6.82;5.18;;;20.80;71.80;;;;;;5015840;28;20030;-79
2023/10/11 13:20:47;;;;;;;6.65;4.47;;;20.80;71.70;;;;;;5017377;28;20052;-79
2023/10/11 13:23:13;;;;;;;6.35;4.72;;;20.80;71.70;;;;;;5013768;28;20059;-79
2023/10/11 13:25:39;;;;;;;5.93;4.57;;;20.90;71.80;;;;;;5007921;28;20033;-79
2023/10/11 13:28:07;;;;;;;6.35;4.53;;;20.90;71.70;;;;;;5019706;28;20030;-79
2023/10/11 13:30:36;;;;;;;6.13;4.47;;;20.90;71.70;;;;;;5031771;28;20363;-78
2023/10/11 13:33:05;;;;;;;8.00;4.97;;;20.90;71.70;;;;;;5009949;28;20090;-79
2023/10/11 13:35:35;;;;;;;6.35;4.40;;;20.90;71.70;;;;;;5026808;28;20027;-79
2023/10/11 13:38:11;;;;;;;6.63;4.80;;;20.90;71.70;;;;;;5041282;28;20033;-78
2023/10/11 13:40:39;;;;;;;6.05;4.68;;;20.90;71.70;;;;;;5016694;28;20029;-79
2023/10/11 13:43:04;;;;;;;5.95;5.00;;;20.90;71.70;;;;;;5025800;28;20033;-78
2023/10/11 13:45:30;;;;;;;6.88;5.32;;;20.90;71.70;;;;;;5024006;28;20038;-78
2023/10/11 13:47:57;;;;;;;6.72;4.97;;;20.90;71.70;;;;;;5007143;28;20029;-79
2023/10/11 13:50:35;;;;;;;5.93;4.82;;;21.00;71.70;;;;;;5014110;28;20385;-79